CYAZ

Tofino / Long Beach Airport

Tofino, , Canada
METAR CYAZ 161800Z 17004KT 15SM SKC 17/14 A3004 RMK SLP174 DENSITY ALT 200FT
Observed Flight Rules
Jul-16 @ 18:00 UTC (26 minutes ago) Visual Flight Rules
Wind Visibility Clouds
170° at 4 knots 15 miles
  • Clear skies
Temperatures Readings
Current 17°C / 63°F
Dewpoint 14°C / 57°F
Humidity 83%
Altimeter 30.04" Hg
Pressure 1017.4 hPa
Elevation 24
METAR CYAZ 161800Z 17004KT 15SM SKC 17/14 A3004 RMK SLP174 DENSITY ALT 200FT
Observed Flight Rules
Jul-16 @ 18:00 UTC
(26 minutes ago)
VFR
Wind Visibility
170° at 4 knots 15 miles
Clouds
  • Clear skies
Temperature Dewpoint
17°C / 63°F 14°C / 57°F
Humidity Altimeter Pressure
83% 30.04" Hg 1017.4 hPa